Time,TemperatureF,DewpointF,PressureIn,WindDirection,WindDirectionDegrees,WindSpeedMPH,WindSpeedGustMPH,Humidity,HourlyPrecipIn,Conditions,Clouds,dailyrainin,SolarRadiationWatts/m^2,SoftwareType,DateUTC
2014-12-24 00:00:00,47.9,47.1,29.76,South,179,0.0,0.0,97,0.00,,,0.00,0,Wunderground v.1.15,2014-12-24 05:00:00,
2014-12-24 00:06:00,47.9,47.1,29.76,South,179,0.0,0.0,97,0.00,,,0.00,0,Wunderground v.1.15,2014-12-24 05:06:00,
2014-12-24 00:12:00,47.8,47.0,29.76,South,179,0.0,0.0,97,0.00,,,0.00,0,Wunderground v.1.15,2014-12-24 05:12:00,
2014-12-24 00:18:00,47.8,47.0,29.75,South,179,0.0,0.0,97,0.00,,,0.00,0,Wunderground v.1.15,2014-12-24 05:18:00,
2014-12-24 00:24:00,47.8,47.0,29.75,South,179,0.0,0.0,97,0.00,,,0.00,0,Wunderground v.1.15,2014-12-24 05:24:00,
2014-12-24 00:30:00,47.7,46.9,29.75,South,179,0.0,0.0,97,0.00,,,0.00,0,Wunderground v.1.15,2014-12-24 05:30:00,
2014-12-24 00:36:00,47.7,46.9,29.75,South,179,0.0,0.0,97,0.00,,,0.00,0,Wunderground v.1.15,2014-12-24 05:36:00,
2014-12-24 00:42:00,47.7,46.9,29.75,South,179,0.0,0.0,97,0.00,,,0.00,0,Wunderground v.1.15,2014-12-24 05:42:00,
2014-12-24 00:48:00,47.7,46.9,29.75,South,179,0.0,0.0,97,0.00,,,0.00,0,Wunderground v.1.15,2014-12-24 05:48:00,
2014-12-24 00:54:00,47.7,46.9,29.75,South,179,0.0,0.0,97,0.14,,,0.02,0,Wunderground v.1.15,2014-12-24 05:54:00,
2014-12-24 01:00:00,47.6,46.8,29.75,South,179,0.0,0.0,97,0.09,,,0.02,0,Wunderground v.1.15,2014-12-24 06:00:00,
2014-12-24 01:06:00,47.6,46.8,29.75,South,179,0.0,0.0,97,0.09,,,0.03,0,Wunderground v.1.15,2014-12-24 06:06:00,
2014-12-24 01:12:00,47.6,46.8,29.74,South,179,0.0,0.0,97,0.09,,,0.04,0,Wunderground v.1.15,2014-12-24 06:12:00,
2014-12-24 01:18:00,47.6,46.8,29.74,South,179,0.0,0.0,97,0.07,,,0.05,0,Wunderground v.1.15,2014-12-24 06:18:00,
2014-12-24 01:24:00,47.6,46.8,29.74,South,179,0.0,0.0,97,0.07,,,0.05,0,Wunderground v.1.15,2014-12-24 06:24:00,
2014-12-24 01:30:00,47.5,46.7,29.73,South,179,0.0,0.0,97,0.04,,,0.06,0,Wunderground v.1.15,2014-12-24 06:30:00,
2014-12-24 01:36:00,47.5,46.7,29.72,South,179,0.0,0.0,97,0.12,,,0.07,0,Wunderground v.1.15,2014-12-24 06:36:00,
2014-12-24 01:42:00,47.5,46.7,29.73,South,179,0.0,0.0,97,0.08,,,0.07,0,Wunderground v.1.15,2014-12-24 06:42:00,
2014-12-24 01:48:00,47.5,46.7,29.72,South,179,0.0,0.0,97,0.30,,,0.08,0,Wunderground v.1.15,2014-12-24 06:48:00,
2014-12-24 01:54:00,47.5,46.7,29.72,South,179,0.0,0.0,97,0.12,,,0.10,0,Wunderground v.1.15,2014-12-24 06:54:00,
2014-12-24 02:00:00,47.5,46.7,29.71,South,179,0.0,0.0,97,0.08,,,0.10,0,Wunderground v.1.15,2014-12-24 07:00:00,
2014-12-24 02:06:00,47.6,46.8,29.70,South,179,0.0,0.0,97,0.06,,,0.11,0,Wunderground v.1.15,2014-12-24 07:06:00,
2014-12-24 02:12:00,47.5,46.7,29.70,South,179,0.0,0.0,97,0.08,,,0.12,0,Wunderground v.1.15,2014-12-24 07:12:00,
2014-12-24 02:18:00,47.5,46.7,29.70,South,179,0.0,0.0,97,0.14,,,0.13,0,Wunderground v.1.15,2014-12-24 07:18:00,
2014-12-24 02:24:00,47.5,46.7,29.70,South,179,0.0,0.0,97,0.08,,,0.14,0,Wunderground v.1.15,2014-12-24 07:24:00,
2014-12-24 02:30:00,47.5,46.7,29.69,South,179,0.0,0.0,97,0.11,,,0.15,0,Wunderground v.1.15,2014-12-24 07:30:00,
2014-12-24 02:36:00,47.6,46.8,29.70,SSE,153,0.0,0.0,97,0.14,,,0.17,0,Wunderground v.1.15,2014-12-24 07:36:00,
2014-12-24 02:42:00,47.6,46.8,29.70,SSE,152,0.0,0.0,97,0.08,,,0.17,0,Wunderground v.1.15,2014-12-24 07:42:00,
2014-12-24 02:48:00,47.7,46.9,29.70,North,5,0.0,0.0,97,0.07,,,0.18,0,Wunderground v.1.15,2014-12-24 07:48:00,
2014-12-24 02:54:00,47.8,47.0,29.69,North,5,0.0,0.0,97,0.10,,,0.19,0,Wunderground v.1.15,2014-12-24 07:54:00,
2014-12-24 03:00:00,47.7,46.9,29.69,North,5,0.0,0.0,97,0.06,,,0.20,0,Wunderground v.1.15,2014-12-24 08:00:00,
2014-12-24 03:06:00,47.7,46.9,29.70,North,5,0.0,0.0,97,0.06,,,0.20,0,Wunderground v.1.15,2014-12-24 08:06:00,
2014-12-24 03:12:00,47.8,47.0,29.70,North,5,0.0,0.0,97,0.08,,,0.21,0,Wunderground v.1.15,2014-12-24 08:12:00,
2014-12-24 03:20:00,47.8,47.0,29.69,North,5,0.0,0.0,97,0.12,,,0.23,0,Wunderground v.1.15,2014-12-24 08:20:00,
2014-12-24 03:26:00,47.7,46.9,29.69,North,5,0.0,0.0,97,0.07,,,0.23,0,Wunderground v.1.15,2014-12-24 08:26:00,
2014-12-24 03:32:00,47.8,47.0,29.68,North,5,0.0,0.0,97,0.07,,,0.24,0,Wunderground v.1.15,2014-12-24 08:32:00,
2014-12-24 03:38:00,47.7,46.9,29.68,North,9,0.0,0.0,97,0.07,,,0.25,0,Wunderground v.1.15,2014-12-24 08:38:00,
2014-12-24 03:44:00,47.7,46.9,29.68,North,10,0.0,3.0,97,0.07,,,0.25,0,Wunderground v.1.15,2014-12-24 08:44:00,
2014-12-24 03:50:00,47.7,46.9,29.68,North,10,0.0,0.0,97,0.04,,,0.25,0,Wunderground v.1.15,2014-12-24 08:50:00,
2014-12-24 03:56:00,47.7,46.9,29.67,North,10,0.0,1.0,97,0.00,,,0.25,0,Wunderground v.1.15,2014-12-24 08:56:00,
2014-12-24 04:02:00,47.6,46.8,29.66,NNE,13,1.0,1.0,97,0.00,,,0.26,0,Wunderground v.1.15,2014-12-24 09:02:00,
2014-12-24 04:08:00,47.5,46.7,29.66,NNE,13,0.0,1.0,97,0.00,,,0.26,0,Wunderground v.1.15,2014-12-24 09:08:00,
2014-12-24 04:16:00,47.4,46.6,29.67,NNE,14,0.0,0.0,97,0.00,,,0.26,0,Wunderground v.1.15,2014-12-24 09:16:00,
2014-12-24 04:22:00,47.4,46.6,29.67,NNE,14,0.0,0.0,97,0.00,,,0.27,0,Wunderground v.1.15,2014-12-24 09:22:00,
2014-12-24 04:28:00,47.3,46.5,29.67,NNE,14,0.0,0.0,97,0.06,,,0.28,0,Wunderground v.1.15,2014-12-24 09:28:00,
2014-12-24 04:34:00,47.3,46.5,29.67,NNE,14,0.0,0.0,97,0.06,,,0.28,0,Wunderground v.1.15,2014-12-24 09:34:00,
2014-12-24 04:40:00,47.2,46.4,29.67,NNE,14,0.0,2.0,97,0.05,,,0.29,0,Wunderground v.1.15,2014-12-24 09:40:00,
2014-12-24 04:46:00,46.9,46.1,29.66,NW,325,1.0,2.0,97,0.05,,,0.29,0,Wunderground v.1.15,2014-12-24 09:46:00,
2014-12-24 04:52:00,46.7,45.9,29.66,NNW,347,1.0,3.0,97,0.05,,,0.29,0,Wunderground v.1.15,2014-12-24 09:52:00,
2014-12-24 04:58:00,46.6,45.8,29.66,NNW,347,1.0,3.0,97,0.04,,,0.30,0,Wunderground v.1.15,2014-12-24 09:58:00,
2014-12-24 05:04:00,46.5,45.7,29.65,NNW,347,1.0,2.0,97,0.04,,,0.30,0,Wunderground v.1.15,2014-12-24 10:04:00,
2014-12-24 05:10:00,46.5,45.7,29.65,NNW,348,1.0,2.0,97,0.06,,,0.31,0,Wunderground v.1.15,2014-12-24 10:10:00,
2014-12-24 05:16:00,46.4,45.6,29.65,NNW,347,0.0,0.0,97,0.05,,,0.31,0,Wunderground v.1.15,2014-12-24 10:16:00,
2014-12-24 05:22:00,46.4,45.6,29.64,NNW,347,0.0,0.0,97,0.00,,,0.31,0,Wunderground v.1.15,2014-12-24 10:22:00,
2014-12-24 05:28:00,46.3,45.5,29.63,NNW,348,0.0,0.0,97,0.00,,,0.31,0,Wunderground v.1.15,2014-12-24 10:28:00,
2014-12-24 05:34:00,46.3,45.5,29.63,North,350,0.0,1.0,97,0.00,,,0.31,0,Wunderground v.1.15,2014-12-24 10:34:00,
2014-12-24 05:40:00,46.3,45.5,29.63,North,350,0.0,4.0,97,0.00,,,0.31,0,Wunderground v.1.15,2014-12-24 10:40:00,
2014-12-24 05:46:00,46.3,45.5,29.62,North,350,1.0,1.0,97,0.00,,,0.31,0,Wunderground v.1.15,2014-12-24 10:46:00,
2014-12-24 05:52:00,46.3,45.5,29.63,North,350,0.0,1.0,97,0.00,,,0.31,0,Wunderground v.1.15,2014-12-24 10:52:00,
2014-12-24 05:58:00,46.3,45.5,29.62,North,5,1.0,1.0,97,0.00,,,0.31,0,Wunderground v.1.15,2014-12-24 10:58:00,
2014-12-24 06:04:00,46.3,45.5,29.62,NNE,30,0.0,3.0,97,0.00,,,0.31,0,Wunderground v.1.15,2014-12-24 11:04:00,
2014-12-24 06:10:00,46.3,45.5,29.61,NE,34,0.0,0.0,97,0.00,,,0.31,0,Wunderground v.1.15,2014-12-24 11:10:00,
2014-12-24 06:16:00,46.3,45.5,29.60,NE,34,0.0,0.0,97,0.00,,,0.32,0,Wunderground v.1.15,2014-12-24 11:16:00,
2014-12-24 06:22:00,46.4,45.6,29.60,NE,34,0.0,0.0,97,0.00,,,0.32,0,Wunderground v.1.15,2014-12-24 11:22:00,
2014-12-24 06:28:00,46.4,45.6,29.60,NE,34,0.0,0.0,97,0.00,,,0.32,0,Wunderground v.1.15,2014-12-24 11:28:00,
2014-12-24 06:34:00,46.4,45.6,29.60,NE,34,0.0,0.0,97,0.00,,,0.32,0,Wunderground v.1.15,2014-12-24 11:34:00,
2014-12-24 06:40:00,46.4,45.6,29.60,NE,35,0.0,0.0,97,0.00,,,0.32,0,Wunderground v.1.15,2014-12-24 11:40:00,
2014-12-24 06:46:00,46.4,45.6,29.60,NE,35,0.0,0.0,97,0.00,,,0.32,0,Wunderground v.1.15,2014-12-24 11:46:00,
2014-12-24 06:52:00,46.4,45.6,29.60,NE,35,0.0,0.0,97,0.00,,,0.32,0,Wunderground v.1.15,2014-12-24 11:52:00,
2014-12-24 06:58:00,46.5,45.7,29.60,NE,35,0.0,0.0,97,0.00,,,0.32,0,Wunderground v.1.15,2014-12-24 11:58:00,
2014-12-24 07:04:00,46.5,45.7,29.60,NE,35,0.0,0.0,97,0.00,,,0.32,0,Wunderground v.1.15,2014-12-24 12:04:00,
2014-12-24 07:10:00,46.4,45.6,29.59,NE,35,0.0,0.0,97,0.00,,,0.32,0,Wunderground v.1.15,2014-12-24 12:10:00,
2014-12-24 07:16:00,46.4,45.6,29.59,NE,35,0.0,0.0,97,0.00,,,0.33,0,Wunderground v.1.15,2014-12-24 12:16:00,
2014-12-24 07:22:00,46.4,45.6,29.59,NE,35,0.0,0.0,97,0.00,,,0.33,0,Wunderground v.1.15,2014-12-24 12:22:00,
2014-12-24 07:28:00,46.4,45.6,29.59,NE,35,0.0,0.0,97,0.00,,,0.33,0,Wunderground v.1.15,2014-12-24 12:28:00,
2014-12-24 07:34:00,46.3,45.5,29.59,NE,35,0.0,0.0,97,0.00,,,0.33,0,Wunderground v.1.15,2014-12-24 12:34:00,
2014-12-24 07:40:00,46.3,45.5,29.58,NE,35,0.0,0.0,97,0.00,,,0.34,0,Wunderground v.1.15,2014-12-24 12:40:00,
2014-12-24 07:46:00,46.3,45.5,29.58,NE,34,0.0,0.0,97,0.00,,,0.34,0,Wunderground v.1.15,2014-12-24 12:46:00,
2014-12-24 07:52:00,46.3,45.5,29.58,NE,34,0.0,0.0,97,0.00,,,0.34,0,Wunderground v.1.15,2014-12-24 12:52:00,
2014-12-24 07:58:00,46.3,45.5,29.58,NE,34,0.0,3.0,97,0.00,,,0.34,0,Wunderground v.1.15,2014-12-24 12:58:00,
2014-12-24 08:04:00,46.3,45.8,29.57,NNE,15,0.0,0.0,98,0.00,,,0.34,0,Wunderground v.1.15,2014-12-24 13:04:00,
2014-12-24 08:10:00,46.3,45.5,29.58,NNE,16,0.0,0.0,97,0.00,,,0.34,0,Wunderground v.1.15,2014-12-24 13:10:00,
2014-12-24 08:16:00,46.3,45.8,29.58,NNE,16,0.0,0.0,98,0.00,,,0.34,0,Wunderground v.1.15,2014-12-24 13:16:00,
2014-12-24 08:22:00,46.3,45.8,29.58,NNE,16,0.0,0.0,98,0.00,,,0.34,0,Wunderground v.1.15,2014-12-24 13:22:00,
2014-12-24 08:28:00,46.3,45.8,29.58,NNE,16,0.0,0.0,98,0.00,,,0.34,0,Wunderground v.1.15,2014-12-24 13:28:00,
2014-12-24 08:34:00,46.3,45.8,29.58,NNE,16,0.0,0.0,98,0.00,,,0.34,0,Wunderground v.1.15,2014-12-24 13:34:00,
2014-12-24 08:40:00,46.3,45.8,29.57,NNE,16,0.0,0.0,98,0.00,,,0.34,0,Wunderground v.1.15,2014-12-24 13:40:00,
2014-12-24 08:46:00,46.4,45.9,29.58,NNE,16,0.0,0.0,98,0.00,,,0.34,0,Wunderground v.1.15,2014-12-24 13:46:00,
2014-12-24 08:52:00,46.3,45.8,29.57,North,355,1.0,1.0,98,0.00,,,0.34,5,Wunderground v.1.15,2014-12-24 13:52:00,
2014-12-24 08:58:00,46.2,45.4,29.57,North,355,1.0,1.0,97,0.00,,,0.34,5,Wunderground v.1.15,2014-12-24 13:58:00,
2014-12-24 09:04:00,46.1,45.3,29.57,North,355,0.0,2.0,97,0.00,,,0.34,7,Wunderground v.1.15,2014-12-24 14:04:00,
2014-12-24 09:10:00,45.9,45.1,29.56,NNE,24,1.0,1.0,97,0.00,,,0.35,14,Wunderground v.1.15,2014-12-24 14:10:00,
2014-12-24 09:16:00,45.7,44.9,29.56,North,10,1.0,1.0,97,0.00,,,0.35,19,Wunderground v.1.15,2014-12-24 14:16:00,
2014-12-24 09:22:00,45.6,44.8,29.56,North,10,0.0,0.0,97,0.00,,,0.35,18,Wunderground v.1.15,2014-12-24 14:22:00,
2014-12-24 09:28:00,45.5,44.7,29.56,North,11,0.0,0.0,97,0.00,,,0.35,16,Wunderground v.1.15,2014-12-24 14:28:00,
2014-12-24 09:34:00,45.4,44.6,29.56,North,11,0.0,0.0,97,0.00,,,0.35,18,Wunderground v.1.15,2014-12-24 14:34:00,
2014-12-24 09:40:00,45.4,44.6,29.56,North,11,0.0,0.0,97,0.00,,,0.35,16,Wunderground v.1.15,2014-12-24 14:40:00,
2014-12-24 09:46:00,45.4,44.6,29.57,North,11,0.0,0.0,97,0.00,,,0.35,14,Wunderground v.1.15,2014-12-24 14:46:00,
2014-12-24 09:52:00,45.4,44.6,29.56,North,11,0.0,0.0,97,0.00,,,0.35,21,Wunderground v.1.15,2014-12-24 14:52:00,
2014-12-24 09:58:00,45.4,44.6,29.55,North,11,0.0,0.0,97,0.00,,,0.35,21,Wunderground v.1.15,2014-12-24 14:58:00,
2014-12-24 10:04:00,45.4,44.6,29.55,North,11,0.0,0.0,97,0.00,,,0.35,21,Wunderground v.1.15,2014-12-24 15:04:00,
2014-12-24 10:10:00,45.4,44.6,29.55,North,11,0.0,0.0,97,0.00,,,0.35,26,Wunderground v.1.15,2014-12-24 15:10:00,
2014-12-24 10:16:00,45.4,44.6,29.55,North,11,0.0,0.0,97,0.00,,,0.35,19,Wunderground v.1.15,2014-12-24 15:16:00,
2014-12-24 10:22:00,45.4,44.6,29.55,North,11,0.0,0.0,97,0.00,,,0.35,21,Wunderground v.1.15,2014-12-24 15:22:00,
2014-12-24 10:28:00,45.5,44.7,29.55,North,11,0.0,0.0,97,0.00,,,0.35,28,Wunderground v.1.15,2014-12-24 15:28:00,
2014-12-24 10:34:00,45.5,44.7,29.55,North,11,0.0,0.0,97,0.00,,,0.35,28,Wunderground v.1.15,2014-12-24 15:34:00,
2014-12-24 10:42:00,45.6,45.1,29.54,North,11,0.0,0.0,98,0.00,,,0.36,23,Wunderground v.1.15,2014-12-24 15:42:00,
2014-12-24 10:48:00,45.8,45.3,29.54,North,11,0.0,0.0,98,0.00,,,0.36,26,Wunderground v.1.15,2014-12-24 15:48:00,
2014-12-24 10:54:00,45.9,45.4,29.53,North,11,0.0,0.0,98,0.00,,,0.36,30,Wunderground v.1.15,2014-12-24 15:54:00,
2014-12-24 11:00:00,46.0,45.5,29.52,NE,46,0.0,2.0,98,0.00,,,0.36,33,Wunderground v.1.15,2014-12-24 16:00:00,
2014-12-24 11:06:00,46.0,45.5,29.52,NE,47,1.0,2.0,98,0.00,,,0.36,16,Wunderground v.1.15,2014-12-24 16:06:00,
2014-12-24 11:12:00,46.0,45.5,29.51,NE,48,1.0,1.0,98,0.00,,,0.36,25,Wunderground v.1.15,2014-12-24 16:12:00,
2014-12-24 11:18:00,46.0,45.5,29.50,NE,49,0.0,1.0,98,0.00,,,0.36,35,Wunderground v.1.15,2014-12-24 16:18:00,
2014-12-24 11:24:00,46.0,45.5,29.50,NE,48,0.0,0.0,98,0.00,,,0.36,35,Wunderground v.1.15,2014-12-24 16:24:00,
2014-12-24 11:30:00,46.0,45.2,29.49,ENE,59,0.0,0.0,97,0.00,,,0.36,39,Wunderground v.1.15,2014-12-24 16:30:00,
2014-12-24 11:36:00,46.0,45.5,29.49,ENE,59,0.0,0.0,98,0.00,,,0.36,39,Wunderground v.1.15,2014-12-24 16:36:00,
2014-12-24 11:42:00,46.0,45.2,29.48,ENE,59,0.0,0.0,97,0.00,,,0.37,60,Wunderground v.1.15,2014-12-24 16:42:00,
2014-12-24 11:48:00,46.1,45.6,29.47,ENE,59,0.0,0.0,98,0.00,,,0.37,49,Wunderground v.1.15,2014-12-24 16:48:00,
2014-12-24 11:54:00,46.1,45.6,29.46,ENE,59,0.0,0.0,98,0.05,,,0.37,62,Wunderground v.1.15,2014-12-24 16:54:00,
2014-12-24 12:00:00,46.3,45.8,29.46,ENE,59,0.0,0.0,98,0.05,,,0.38,44,Wunderground v.1.15,2014-12-24 17:00:00,
2014-12-24 12:06:00,46.3,45.8,29.45,ENE,59,0.0,0.0,98,0.05,,,0.38,49,Wunderground v.1.15,2014-12-24 17:06:00,
2014-12-24 12:12:00,46.3,45.8,29.45,ENE,59,0.0,0.0,98,0.00,,,0.38,39,Wunderground v.1.15,2014-12-24 17:12:00,
2014-12-24 12:18:00,46.3,45.8,29.44,ENE,57,0.0,0.0,98,0.00,,,0.39,30,Wunderground v.1.15,2014-12-24 17:18:00,
2014-12-24 12:24:00,46.4,45.9,29.44,ENE,57,0.0,0.0,98,0.00,,,0.39,26,Wunderground v.1.15,2014-12-24 17:24:00,
2014-12-24 12:30:00,46.4,45.9,29.43,NE,51,0.0,0.0,98,0.05,,,0.40,23,Wunderground v.1.15,2014-12-24 17:30:00,
2014-12-24 12:36:00,46.4,45.9,29.42,NNE,28,0.0,0.0,98,0.09,,,0.41,19,Wunderground v.1.15,2014-12-24 17:36:00,
2014-12-24 12:42:00,46.4,45.9,29.42,North,355,0.0,1.0,98,0.09,,,0.42,32,Wunderground v.1.15,2014-12-24 17:42:00,
2014-12-24 12:48:00,46.3,45.8,29.42,NW,318,1.0,2.0,98,0.15,,,0.43,26,Wunderground v.1.15,2014-12-24 17:48:00,
2014-12-24 12:54:00,46.1,45.3,29.42,NW,321,1.0,1.0,97,0.11,,,0.44,28,Wunderground v.1.15,2014-12-24 17:54:00,
2014-12-24 13:00:00,45.9,45.1,29.41,NW,321,0.0,0.0,97,0.15,,,0.46,28,Wunderground v.1.15,2014-12-24 18:00:00,
2014-12-24 13:06:00,45.8,45.0,29.41,NW,321,0.0,0.0,97,0.12,,,0.47,42,Wunderground v.1.15,2014-12-24 18:06:00,
2014-12-24 13:12:00,45.6,45.1,29.40,NW,321,0.0,0.0,98,0.07,,,0.48,54,Wunderground v.1.15,2014-12-24 18:12:00,
2014-12-24 13:18:00,45.5,44.7,29.40,NNW,329,1.0,1.0,97,0.07,,,0.48,46,Wunderground v.1.15,2014-12-24 18:18:00,
2014-12-24 13:24:00,45.3,44.5,29.40,NW,320,1.0,3.0,97,0.08,,,0.49,32,Wunderground v.1.15,2014-12-24 18:24:00,
2014-12-24 13:30:00,44.9,44.1,29.40,NW,315,2.0,2.0,97,0.08,,,0.50,42,Wunderground v.1.15,2014-12-24 18:30:00,
2014-12-24 13:36:00,44.6,43.8,29.40,NW,307,3.0,5.0,97,0.10,,,0.51,44,Wunderground v.1.15,2014-12-24 18:36:00,
2014-12-24 13:42:00,44.4,43.6,29.40,NW,315,2.0,5.0,97,0.08,,,0.52,28,Wunderground v.1.15,2014-12-24 18:42:00,
2014-12-24 13:48:00,44.1,43.3,29.39,NW,323,2.0,5.0,97,0.10,,,0.53,32,Wunderground v.1.15,2014-12-24 18:48:00,
2014-12-24 13:54:00,44.0,43.2,29.38,NNW,329,1.0,2.0,97,0.08,,,0.53,42,Wunderground v.1.15,2014-12-24 18:54:00,
2014-12-24 14:00:00,43.9,43.1,29.38,NW,322,1.0,1.0,97,0.06,,,0.54,28,Wunderground v.1.15,2014-12-24 19:00:00,
2014-12-24 14:06:00,43.8,43.0,29.38,NNW,327,1.0,3.0,97,0.06,,,0.54,26,Wunderground v.1.15,2014-12-24 19:06:00,
2014-12-24 14:12:00,43.8,43.0,29.38,WNW,302,2.0,5.0,97,0.04,,,0.54,9,Wunderground v.1.15,2014-12-24 19:12:00,
2014-12-24 14:18:00,43.7,42.9,29.38,NW,305,3.0,6.0,97,0.00,,,0.55,16,Wunderground v.1.15,2014-12-24 19:18:00,
2014-12-24 14:24:00,43.4,42.6,29.37,NW,320,3.0,3.0,97,0.40,,,0.57,47,Wunderground v.1.15,2014-12-24 19:24:00,
2014-12-24 14:30:00,43.4,42.6,29.35,NNW,348,2.0,2.0,97,0.16,,,0.58,132,Wunderground v.1.15,2014-12-24 19:30:00,
2014-12-24 14:36:00,43.4,42.6,29.34,North,350,2.0,4.0,97,0.11,,,0.59,98,Wunderground v.1.15,2014-12-24 19:36:00,
2014-12-24 14:42:00,43.4,42.6,29.34,North,355,2.0,2.0,97,0.06,,,0.59,58,Wunderground v.1.15,2014-12-24 19:42:00,
2014-12-24 14:48:00,43.3,42.5,29.33,NNW,342,2.0,6.0,97,0.04,,,0.59,98,Wunderground v.1.15,2014-12-24 19:48:00,
2014-12-24 14:54:00,43.2,42.4,29.32,North,360,3.0,6.0,97,0.00,,,0.59,70,Wunderground v.1.15,2014-12-24 19:54:00,
2014-12-24 15:00:00,43.1,42.3,29.33,NNW,333,2.0,2.0,97,0.00,,,0.59,37,Wunderground v.1.15,2014-12-24 20:00:00,
2014-12-24 15:06:00,43.1,42.3,29.32,North,355,1.0,4.0,97,0.00,,,0.59,23,Wunderground v.1.15,2014-12-24 20:06:00,
2014-12-24 15:12:00,43.0,42.2,29.32,NNE,18,2.0,2.0,97,0.00,,,0.59,23,Wunderground v.1.15,2014-12-24 20:12:00,
2014-12-24 15:18:00,42.9,42.1,29.32,North,360,1.0,2.0,97,0.00,,,0.59,11,Wunderground v.1.15,2014-12-24 20:18:00,
2014-12-24 15:24:00,42.9,42.1,29.32,NW,321,0.0,1.0,97,0.00,,,0.59,11,Wunderground v.1.15,2014-12-24 20:24:00,
2014-12-24 15:30:00,42.9,42.1,29.32,NNW,335,0.0,0.0,97,0.00,,,0.59,9,Wunderground v.1.15,2014-12-24 20:30:00,
2014-12-24 15:36:00,42.9,42.1,29.31,NNW,336,0.0,0.0,97,0.00,,,0.59,9,Wunderground v.1.15,2014-12-24 20:36:00,
2014-12-24 15:42:00,42.9,42.1,29.32,NNW,336,0.0,0.0,97,0.00,,,0.59,5,Wunderground v.1.15,2014-12-24 20:42:00,
2014-12-24 15:48:00,42.8,42.0,29.31,NNW,336,0.0,0.0,97,0.00,,,0.59,5,Wunderground v.1.15,2014-12-24 20:48:00,
2014-12-24 15:54:00,42.7,41.9,29.32,NNW,336,0.0,0.0,97,0.00,,,0.59,5,Wunderground v.1.15,2014-12-24 20:54:00,
2014-12-24 16:00:00,42.6,41.8,29.33,NNW,336,0.0,0.0,97,0.00,,,0.60,0,Wunderground v.1.15,2014-12-24 21:00:00,
2014-12-24 16:06:00,42.5,41.7,29.33,NNW,336,0.0,0.0,97,0.39,,,0.63,0,Wunderground v.1.15,2014-12-24 21:06:00,
2014-12-24 16:12:00,42.3,41.5,29.32,WNW,295,0.0,0.0,97,0.31,,,0.68,11,Wunderground v.1.15,2014-12-24 21:12:00,
2014-12-24 16:18:00,42.2,41.4,29.32,NW,319,0.0,0.0,97,0.18,,,0.69,7,Wunderground v.1.15,2014-12-24 21:18:00,
2014-12-24 16:24:00,42.0,41.2,29.31,NW,319,0.0,0.0,97,0.06,,,0.69,5,Wunderground v.1.15,2014-12-24 21:24:00,
2014-12-24 16:30:00,41.8,41.0,29.30,NNW,335,1.0,1.0,97,0.04,,,0.69,7,Wunderground v.1.15,2014-12-24 21:30:00,
2014-12-24 16:36:00,41.5,40.7,29.29,NNW,340,1.0,1.0,97,0.04,,,0.70,12,Wunderground v.1.15,2014-12-24 21:36:00,
2014-12-24 16:42:00,41.4,40.6,29.30,NNW,347,1.0,1.0,97,0.04,,,0.70,0,Wunderground v.1.15,2014-12-24 21:42:00,
2014-12-24 16:48:00,41.3,40.5,29.29,NNW,346,0.0,1.0,97,0.05,,,0.71,0,Wunderground v.1.15,2014-12-24 21:48:00,
2014-12-24 16:54:00,41.2,40.4,29.30,NNW,346,0.0,1.0,97,0.05,,,0.71,0,Wunderground v.1.15,2014-12-24 21:54:00,
2014-12-24 17:00:00,41.1,40.3,29.30,NW,319,0.0,4.0,97,0.25,,,0.73,0,Wunderground v.1.15,2014-12-24 22:00:00,
2014-12-24 17:06:00,41.1,40.3,29.31,NW,321,1.0,4.0,97,0.20,,,0.75,0,Wunderground v.1.15,2014-12-24 22:06:00,
2014-12-24 17:12:00,41.0,40.2,29.29,NW,313,1.0,4.0,97,0.31,,,0.77,0,Wunderground v.1.15,2014-12-24 22:12:00,
2014-12-24 17:18:00,40.9,40.1,29.28,NNW,328,2.0,4.0,97,0.14,,,0.78,0,Wunderground v.1.15,2014-12-24 22:18:00,
2014-12-24 17:24:00,40.6,39.8,29.27,NW,323,3.0,5.0,97,0.08,,,0.79,0,Wunderground v.1.15,2014-12-24 22:24:00,
2014-12-24 17:30:00,40.5,39.7,29.29,NW,313,3.0,3.0,97,0.10,,,0.80,0,Wunderground v.1.15,2014-12-24 22:30:00,
2014-12-24 17:36:00,40.3,39.5,29.28,NW,325,3.0,3.0,97,0.09,,,0.80,0,Wunderground v.1.15,2014-12-24 22:36:00,
2014-12-24 17:42:00,40.2,39.4,29.28,NNW,328,2.0,3.0,97,0.08,,,0.81,0,Wunderground v.1.15,2014-12-24 22:42:00,
2014-12-24 17:48:00,40.0,39.2,29.28,NNW,332,3.0,7.0,97,0.05,,,0.82,0,Wunderground v.1.15,2014-12-24 22:48:00,
2014-12-24 17:54:00,39.9,39.1,29.29,WNW,298,4.0,7.0,97,0.05,,,0.82,0,Wunderground v.1.15,2014-12-24 22:54:00,
2014-12-24 18:00:00,39.9,39.1,29.31,WNW,286,4.0,4.0,97,0.05,,,0.82,0,Wunderground v.1.15,2014-12-24 23:00:00,
2014-12-24 18:06:00,39.8,39.0,29.33,WNW,286,4.0,6.0,97,0.04,,,0.83,0,Wunderground v.1.15,2014-12-24 23:06:00,
2014-12-24 18:12:00,39.8,39.0,29.33,WNW,293,3.0,3.0,97,0.11,,,0.84,0,Wunderground v.1.15,2014-12-24 23:12:00,
2014-12-24 18:18:00,39.8,39.0,29.32,NNW,337,3.0,9.0,97,0.12,,,0.85,0,Wunderground v.1.15,2014-12-24 23:18:00,
2014-12-24 18:24:00,39.7,38.9,29.32,NNW,327,4.0,4.0,97,0.08,,,0.86,0,Wunderground v.1.15,2014-12-24 23:24:00,
2014-12-24 18:30:00,39.7,38.9,29.29,NNW,348,4.0,6.0,97,0.07,,,0.86,0,Wunderground v.1.15,2014-12-24 23:30:00,
2014-12-24 18:36:00,39.6,38.8,29.27,NNW,336,4.0,7.0,97,0.05,,,0.87,0,Wunderground v.1.15,2014-12-24 23:36:00,
2014-12-24 18:42:00,39.5,38.7,29.24,North,355,6.0,8.0,97,0.05,,,0.87,0,Wunderground v.1.15,2014-12-24 23:42:00,
2014-12-24 18:48:00,39.4,38.6,29.23,WNW,290,7.0,8.0,97,0.04,,,0.87,0,Wunderground v.1.15,2014-12-24 23:48:00,
2014-12-24 18:54:00,39.5,38.7,29.28,West,275,5.0,7.0,97,0.00,,,0.87,0,Wunderground v.1.15,2014-12-24 23:54:00,
2014-12-24 19:00:00,39.5,38.7,29.28,WNW,296,5.0,5.0,97,0.00,,,0.87,0,Wunderground v.1.15,2014-12-25 00:00:00,
2014-12-24 19:06:00,39.6,38.8,29.29,WNW,292,3.0,7.0,97,0.00,,,0.87,0,Wunderground v.1.15,2014-12-25 00:06:00,
2014-12-24 19:12:00,39.6,38.8,29.32,West,276,5.0,7.0,97,0.00,,,0.87,0,Wunderground v.1.15,2014-12-25 00:12:00,
2014-12-24 19:18:00,39.7,38.9,29.33,West,263,6.0,10.0,97,0.00,,,0.87,0,Wunderground v.1.15,2014-12-25 00:18:00,
2014-12-24 19:24:00,39.7,38.9,29.34,WSW,253,7.0,14.0,97,0.00,,,0.87,0,Wunderground v.1.15,2014-12-25 00:24:00,
2014-12-24 19:30:00,39.6,38.8,29.34,West,277,7.0,10.0,97,0.00,,,0.87,0,Wunderground v.1.15,2014-12-25 00:30:00,
2014-12-24 19:36:00,39.3,38.3,29.34,WNW,294,7.0,13.0,96,0.00,,,0.87,0,Wunderground v.1.15,2014-12-25 00:36:00,
2014-12-24 19:42:00,38.9,37.9,29.35,West,267,9.0,10.0,96,0.00,,,0.87,0,Wunderground v.1.15,2014-12-25 00:42:00,
2014-12-24 19:48:00,38.2,37.2,29.35,NW,315,9.0,10.0,96,0.00,,,0.87,0,Wunderground v.1.15,2014-12-25 00:48:00,
2014-12-24 19:54:00,37.6,36.6,29.36,NW,311,9.0,17.0,96,0.00,,,0.88,0,Wunderground v.1.15,2014-12-25 00:54:00,
2014-12-24 20:00:00,37.2,36.2,29.37,WNW,287,8.0,10.0,96,0.00,,,0.88,0,Wunderground v.1.15,2014-12-25 01:00:00,
2014-12-24 20:06:00,36.6,35.3,29.38,WNW,297,8.0,10.0,95,0.07,,,0.89,0,Wunderground v.1.15,2014-12-25 01:06:00,
2014-12-24 20:12:00,36.2,34.9,29.38,West,262,9.0,14.0,95,0.06,,,0.90,0,Wunderground v.1.15,2014-12-25 01:12:00,
2014-12-24 20:18:00,36.2,34.9,29.39,West,269,8.0,14.0,95,0.06,,,0.90,0,Wunderground v.1.15,2014-12-25 01:18:00,
2014-12-24 20:24:00,36.2,35.2,29.39,West,278,6.0,7.0,96,0.04,,,0.90,0,Wunderground v.1.15,2014-12-25 01:24:00,
2014-12-24 20:30:00,36.1,34.8,29.39,WNW,288,7.0,10.0,95,0.00,,,0.90,0,Wunderground v.1.15,2014-12-25 01:30:00,
2014-12-24 20:36:00,36.0,34.7,29.40,WNW,288,8.0,12.0,95,0.00,,,0.91,0,Wunderground v.1.15,2014-12-25 01:36:00,
2014-12-24 20:42:00,35.9,34.6,29.40,WNW,286,8.0,13.0,95,0.00,,,0.91,0,Wunderground v.1.15,2014-12-25 01:42:00,
2014-12-24 20:48:00,35.8,34.5,29.40,NW,312,8.0,13.0,95,0.00,,,0.91,0,Wunderground v.1.15,2014-12-25 01:48:00,
2014-12-24 20:54:00,35.9,34.6,29.41,WNW,296,8.0,9.0,95,0.00,,,0.92,0,Wunderground v.1.15,2014-12-25 01:54:00,
2014-12-24 21:00:00,36.0,35.0,29.41,West,265,9.0,9.0,96,0.00,,,0.92,0,Wunderground v.1.15,2014-12-25 02:00:00,